sensor_id;sensor_type;location;lat;lon;timestamp;P1;durP1;ratioP1;P2;durP2;ratioP2
6197;SDS011;3132;42.622;23.328;2023-11-22T00:02:20;14.40;;;13.33;;
6197;SDS011;3132;42.622;23.328;2023-11-22T00:04:45;14.70;;;13.20;;
6197;SDS011;3132;42.622;23.328;2023-11-22T00:07:11;13.57;;;12.47;;
6197;SDS011;3132;42.622;23.328;2023-11-22T00:09:36;13.70;;;12.43;;
6197;SDS011;3132;42.622;23.328;2023-11-22T00:12:02;12.80;;;11.80;;
6197;SDS011;3132;42.622;23.328;2023-11-22T00:14:28;13.20;;;12.20;;
6197;SDS011;3132;42.622;23.328;2023-11-22T00:16:53;12.50;;;11.60;;
6197;SDS011;3132;42.622;23.328;2023-11-22T00:19:19;12.97;;;12.07;;
6197;SDS011;3132;42.622;23.328;2023-11-22T00:21:47;11.90;;;11.00;;
6197;SDS011;3132;42.622;23.328;2023-11-22T00:24:13;14.80;;;13.50;;
6197;SDS011;3132;42.622;23.328;2023-11-22T00:26:38;13.90;;;12.63;;
6197;SDS011;3132;42.622;23.328;2023-11-22T00:29:04;13.80;;;12.57;;
6197;SDS011;3132;42.622;23.328;2023-11-22T00:31:30;15.20;;;13.80;;
6197;SDS011;3132;42.622;23.328;2023-11-22T00:33:55;15.53;;;12.97;;
6197;SDS011;3132;42.622;23.328;2023-11-22T00:36:21;13.50;;;12.33;;
6197;SDS011;3132;42.622;23.328;2023-11-22T00:38:46;15.07;;;13.67;;
6197;SDS011;3132;42.622;23.328;2023-11-22T00:41:12;14.53;;;13.40;;
6197;SDS011;3132;42.622;23.328;2023-11-22T00:43:39;14.13;;;12.83;;
6197;SDS011;3132;42.622;23.328;2023-11-22T00:46:05;14.33;;;12.93;;
6197;SDS011;3132;42.622;23.328;2023-11-22T00:48:31;14.67;;;13.37;;
6197;SDS011;3132;42.622;23.328;2023-11-22T00:50:56;13.67;;;12.30;;
6197;SDS011;3132;42.622;23.328;2023-11-22T00:53:22;13.53;;;12.53;;
6197;SDS011;3132;42.622;23.328;2023-11-22T00:55:48;13.43;;;12.10;;
6197;SDS011;3132;42.622;23.328;2023-11-22T00:58:13;15.10;;;13.90;;
6197;SDS011;3132;42.622;23.328;2023-11-22T01:00:39;14.03;;;13.13;;
6197;SDS011;3132;42.622;23.328;2023-11-22T01:03:05;13.97;;;12.73;;
6197;SDS011;3132;42.622;23.328;2023-11-22T01:05:31;13.83;;;12.50;;
6197;SDS011;3132;42.622;23.328;2023-11-22T01:07:56;13.10;;;12.10;;
6197;SDS011;3132;42.622;23.328;2023-11-22T01:10:21;13.47;;;12.33;;
6197;SDS011;3132;42.622;23.328;2023-11-22T01:12:47;13.43;;;12.43;;
6197;SDS011;3132;42.622;23.328;2023-11-22T01:15:13;14.00;;;12.80;;
6197;SDS011;3132;42.622;23.328;2023-11-22T01:17:39;13.67;;;12.37;;
6197;SDS011;3132;42.622;23.328;2023-11-22T01:20:04;13.93;;;12.80;;
6197;SDS011;3132;42.622;23.328;2023-11-22T01:22:31;13.47;;;12.37;;
6197;SDS011;3132;42.622;23.328;2023-11-22T01:24:56;13.13;;;12.13;;
6197;SDS011;3132;42.622;23.328;2023-11-22T01:27:22;13.67;;;12.57;;
6197;SDS011;3132;42.622;23.328;2023-11-22T01:29:48;13.97;;;12.80;;
6197;SDS011;3132;42.622;23.328;2023-11-22T01:32:14;13.23;;;12.13;;
6197;SDS011;3132;42.622;23.328;2023-11-22T01:34:42;14.07;;;13.07;;
6197;SDS011;3132;42.622;23.328;2023-11-22T01:37:07;13.40;;;11.93;;
6197;SDS011;3132;42.622;23.328;2023-11-22T01:39:32;13.10;;;12.20;;
6197;SDS011;3132;42.622;23.328;2023-11-22T01:41:58;14.10;;;13.13;;
6197;SDS011;3132;42.622;23.328;2023-11-22T01:44:24;13.67;;;12.67;;
6197;SDS011;3132;42.622;23.328;2023-11-22T01:46:49;12.80;;;11.80;;
6197;SDS011;3132;42.622;23.328;2023-11-22T01:49:15;14.97;;;13.60;;
6197;SDS011;3132;42.622;23.328;2023-11-22T01:51:40;12.80;;;11.80;;
6197;SDS011;3132;42.622;23.328;2023-11-22T01:54:06;13.00;;;12.10;;
6197;SDS011;3132;42.622;23.328;2023-11-22T01:56:33;14.47;;;13.27;;
6197;SDS011;3132;42.622;23.328;2023-11-22T01:59:00;13.43;;;12.23;;
6197;SDS011;3132;42.622;23.328;2023-11-22T02:01:26;13.97;;;12.87;;
6197;SDS011;3132;42.622;23.328;2023-11-22T02:03:52;13.10;;;12.10;;
6197;SDS011;3132;42.622;23.328;2023-11-22T02:06:18;15.00;;;13.63;;
6197;SDS011;3132;42.622;23.328;2023-11-22T02:08:46;14.50;;;13.10;;
6197;SDS011;3132;42.622;23.328;2023-11-22T02:11:12;14.57;;;13.37;;
6197;SDS011;3132;42.622;23.328;2023-11-22T02:13:37;13.37;;;12.37;;
6197;SDS011;3132;42.622;23.328;2023-11-22T02:16:03;13.93;;;12.77;;
6197;SDS011;3132;42.622;23.328;2023-11-22T02:18:29;15.20;;;13.90;;
6197;SDS011;3132;42.622;23.328;2023-11-22T02:20:54;14.33;;;13.03;;
6197;SDS011;3132;42.622;23.328;2023-11-22T02:23:21;14.03;;;12.97;;
6197;SDS011;3132;42.622;23.328;2023-11-22T02:25:46;14.77;;;13.57;;
6197;SDS011;3132;42.622;23.328;2023-11-22T02:28:12;14.37;;;13.37;;
6197;SDS011;3132;42.622;23.328;2023-11-22T02:30:37;14.47;;;13.23;;
6197;SDS011;3132;42.622;23.328;2023-11-22T02:33:03;13.90;;;12.60;;
6197;SDS011;3132;42.622;23.328;2023-11-22T02:35:30;14.63;;;13.33;;
6197;SDS011;3132;42.622;23.328;2023-11-22T02:37:57;14.90;;;13.50;;
6197;SDS011;3132;42.622;23.328;2023-11-22T02:40:22;14.63;;;13.43;;
6197;SDS011;3132;42.622;23.328;2023-11-22T02:42:49;13.87;;;12.73;;
6197;SDS011;3132;42.622;23.328;2023-11-22T02:45:16;13.57;;;12.57;;
6197;SDS011;3132;42.622;23.328;2023-11-22T02:47:45;14.03;;;12.87;;
6197;SDS011;3132;42.622;23.328;2023-11-22T02:50:12;12.87;;;11.97;;
6197;SDS011;3132;42.622;23.328;2023-11-22T02:52:37;14.77;;;13.37;;
6197;SDS011;3132;42.622;23.328;2023-11-22T02:55:03;14.80;;;13.40;;
6197;SDS011;3132;42.622;23.328;2023-11-22T02:57:32;13.97;;;12.67;;
6197;SDS011;3132;42.622;23.328;2023-11-22T02:59:58;13.90;;;12.80;;
6197;SDS011;3132;42.622;23.328;2023-11-22T03:02:23;14.17;;;12.97;;
6197;SDS011;3132;42.622;23.328;2023-11-22T03:04:49;15.27;;;13.97;;
6197;SDS011;3132;42.622;23.328;2023-11-22T03:07:15;15.23;;;13.87;;
6197;SDS011;3132;42.622;23.328;2023-11-22T03:09:40;15.73;;;14.13;;
6197;SDS011;3132;42.622;23.328;2023-11-22T03:12:08;14.80;;;13.27;;
6197;SDS011;3132;42.622;23.328;2023-11-22T03:14:34;13.43;;;12.23;;
6197;SDS011;3132;42.622;23.328;2023-11-22T03:16:59;13.37;;;12.30;;
6197;SDS011;3132;42.622;23.328;2023-11-22T03:19:25;13.10;;;12.00;;
6197;SDS011;3132;42.622;23.328;2023-11-22T03:21:50;13.70;;;12.60;;
6197;SDS011;3132;42.622;23.328;2023-11-22T03:24:15;12.83;;;11.83;;
6197;SDS011;3132;42.622;23.328;2023-11-22T03:26:41;14.27;;;13.07;;
6197;SDS011;3132;42.622;23.328;2023-11-22T03:29:06;13.80;;;12.50;;
6197;SDS011;3132;42.622;23.328;2023-11-22T03:31:32;13.30;;;12.40;;
6197;SDS011;3132;42.622;23.328;2023-11-22T03:33:57;13.00;;;11.90;;
6197;SDS011;3132;42.622;23.328;2023-11-22T03:36:23;13.17;;;12.13;;
6197;SDS011;3132;42.622;23.328;2023-11-22T03:38:49;14.03;;;12.83;;
6197;SDS011;3132;42.622;23.328;2023-11-22T03:41:15;13.67;;;12.47;;
6197;SDS011;3132;42.622;23.328;2023-11-22T03:43:42;16.47;;;14.50;;
6197;SDS011;3132;42.622;23.328;2023-11-22T03:46:08;15.13;;;13.80;;
6197;SDS011;3132;42.622;23.328;2023-11-22T03:48:33;15.30;;;13.97;;
6197;SDS011;3132;42.622;23.328;2023-11-22T03:50:59;15.40;;;14.00;;
6197;SDS011;3132;42.622;23.328;2023-11-22T03:53:24;18.97;;;15.87;;
6197;SDS011;3132;42.622;23.328;2023-11-22T03:55:51;16.93;;;14.37;;
6197;SDS011;3132;42.622;23.328;2023-11-22T03:58:17;15.80;;;14.23;;
6197;SDS011;3132;42.622;23.328;2023-11-22T04:00:43;17.07;;;14.23;;
6197;SDS011;3132;42.622;23.328;2023-11-22T04:03:08;14.53;;;13.23;;
6197;SDS011;3132;42.622;23.328;2023-11-22T04:05:34;13.63;;;12.43;;
6197;SDS011;3132;42.622;23.328;2023-11-22T04:07:59;15.23;;;13.93;;
6197;SDS011;3132;42.622;23.328;2023-11-22T04:10:24;14.00;;;13.00;;
6197;SDS011;3132;42.622;23.328;2023-11-22T04:12:50;14.40;;;13.23;;
6197;SDS011;3132;42.622;23.328;2023-11-22T04:15:16;22.50;;;19.37;;
6197;SDS011;3132;42.622;23.328;2023-11-22T04:17:41;17.90;;;15.90;;
6197;SDS011;3132;42.622;23.328;2023-11-22T04:20:07;15.73;;;14.10;;
6197;SDS011;3132;42.622;23.328;2023-11-22T04:22:35;16.17;;;14.77;;
6197;SDS011;3132;42.622;23.328;2023-11-22T04:25:05;18.57;;;16.10;;
6197;SDS011;3132;42.622;23.328;2023-11-22T04:27:30;16.40;;;14.10;;
6197;SDS011;3132;42.622;23.328;2023-11-22T04:29:57;15.43;;;14.03;;
6197;SDS011;3132;42.622;23.328;2023-11-22T04:32:22;15.70;;;14.40;;
6197;SDS011;3132;42.622;23.328;2023-11-22T04:34:48;15.43;;;14.00;;
6197;SDS011;3132;42.622;23.328;2023-11-22T04:37:13;20.47;;;15.33;;
6197;SDS011;3132;42.622;23.328;2023-11-22T04:39:39;18.43;;;16.63;;
6197;SDS011;3132;42.622;23.328;2023-11-22T04:42:04;22.40;;;18.87;;
6197;SDS011;3132;42.622;23.328;2023-11-22T04:44:30;22.73;;;17.80;;
6197;SDS011;3132;42.622;23.328;2023-11-22T04:46:57;21.80;;;19.50;;
6197;SDS011;3132;42.622;23.328;2023-11-22T04:49:24;23.97;;;19.03;;
6197;SDS011;3132;42.622;23.328;2023-11-22T04:51:50;23.23;;;18.47;;
6197;SDS011;3132;42.622;23.328;2023-11-22T04:54:15;20.23;;;17.17;;
6197;SDS011;3132;42.622;23.328;2023-11-22T04:56:40;18.20;;;16.43;;
6197;SDS011;3132;42.622;23.328;2023-11-22T04:59:06;16.37;;;14.77;;
6197;SDS011;3132;42.622;23.328;2023-11-22T05:01:32;15.00;;;13.53;;
6197;SDS011;3132;42.622;23.328;2023-11-22T05:03:58;17.93;;;16.23;;
6197;SDS011;3132;42.622;23.328;2023-11-22T05:06:24;16.67;;;14.47;;
6197;SDS011;3132;42.622;23.328;2023-11-22T05:08:51;23.80;;;18.77;;
6197;SDS011;3132;42.622;23.328;2023-11-22T05:11:16;18.10;;;16.23;;
6197;SDS011;3132;42.622;23.328;2023-11-22T05:13:42;17.70;;;16.03;;
6197;SDS011;3132;42.622;23.328;2023-11-22T05:16:10;17.90;;;16.30;;
6197;SDS011;3132;42.622;23.328;2023-11-22T05:18:36;19.77;;;16.93;;
6197;SDS011;3132;42.622;23.328;2023-11-22T05:21:04;21.60;;;17.10;;
6197;SDS011;3132;42.622;23.328;2023-11-22T05:23:30;18.07;;;15.80;;
6197;SDS011;3132;42.622;23.328;2023-11-22T05:25:57;16.07;;;14.13;;
6197;SDS011;3132;42.622;23.328;2023-11-22T05:28:24;18.23;;;16.37;;
6197;SDS011;3132;42.622;23.328;2023-11-22T05:30:50;17.37;;;15.47;;
6197;SDS011;3132;42.622;23.328;2023-11-22T05:33:15;18.50;;;16.70;;
6197;SDS011;3132;42.622;23.328;2023-11-22T05:35:41;17.63;;;16.03;;
6197;SDS011;3132;42.622;23.328;2023-11-22T05:38:06;17.33;;;15.63;;
6197;SDS011;3132;42.622;23.328;2023-11-22T05:40:32;19.00;;;17.03;;
6197;SDS011;3132;42.622;23.328;2023-11-22T05:42:58;16.50;;;14.93;;
6197;SDS011;3132;42.622;23.328;2023-11-22T05:45:23;17.70;;;15.87;;
6197;SDS011;3132;42.622;23.328;2023-11-22T05:47:50;17.00;;;15.27;;
6197;SDS011;3132;42.622;23.328;2023-11-22T05:50:15;15.70;;;14.23;;
6197;SDS011;3132;42.622;23.328;2023-11-22T05:52:41;15.03;;;13.40;;
6197;SDS011;3132;42.622;23.328;2023-11-22T05:55:07;15.87;;;14.27;;
6197;SDS011;3132;42.622;23.328;2023-11-22T05:57:33;16.43;;;14.80;;
6197;SDS011;3132;42.622;23.328;2023-11-22T05:59:59;20.60;;;15.83;;
6197;SDS011;3132;42.622;23.328;2023-11-22T06:02:24;17.23;;;15.63;;
6197;SDS011;3132;42.622;23.328;2023-11-22T06:04:49;17.67;;;16.03;;
6197;SDS011;3132;42.622;23.328;2023-11-22T06:07:15;22.57;;;19.20;;
6197;SDS011;3132;42.622;23.328;2023-11-22T06:09:40;21.53;;;18.53;;
6197;SDS011;3132;42.622;23.328;2023-11-22T06:12:06;21.70;;;19.40;;
6197;SDS011;3132;42.622;23.328;2023-11-22T06:14:31;19.70;;;17.43;;
6197;SDS011;3132;42.622;23.328;2023-11-22T06:16:57;21.03;;;18.97;;
6197;SDS011;3132;42.622;23.328;2023-11-22T06:19:22;23.40;;;19.40;;
6197;SDS011;3132;42.622;23.328;2023-11-22T06:21:48;20.50;;;17.80;;
6197;SDS011;3132;42.622;23.328;2023-11-22T06:24:13;21.90;;;18.80;;
6197;SDS011;3132;42.622;23.328;2023-11-22T06:26:44;21.80;;;19.07;;
6197;SDS011;3132;42.622;23.328;2023-11-22T06:29:11;22.80;;;19.83;;
6197;SDS011;3132;42.622;23.328;2023-11-22T06:31:37;21.40;;;18.90;;
6197;SDS011;3132;42.622;23.328;2023-11-22T06:34:02;22.57;;;18.37;;
6197;SDS011;3132;42.622;23.328;2023-11-22T06:36:27;20.87;;;18.67;;
6197;SDS011;3132;42.622;23.328;2023-11-22T06:38:54;22.70;;;18.03;;
6197;SDS011;3132;42.622;23.328;2023-11-22T06:41:20;24.93;;;18.53;;
6197;SDS011;3132;42.622;23.328;2023-11-22T06:43:46;21.37;;;17.10;;
6197;SDS011;3132;42.622;23.328;2023-11-22T06:46:15;21.53;;;19.30;;
6197;SDS011;3132;42.622;23.328;2023-11-22T06:48:43;22.43;;;19.60;;
6197;SDS011;3132;42.622;23.328;2023-11-22T06:51:13;26.80;;;20.10;;
6197;SDS011;3132;42.622;23.328;2023-11-22T06:53:39;22.03;;;19.73;;
6197;SDS011;3132;42.622;23.328;2023-11-22T06:56:04;22.43;;;19.40;;
6197;SDS011;3132;42.622;23.328;2023-11-22T06:58:30;21.37;;;19.17;;
6197;SDS011;3132;42.622;23.328;2023-11-22T07:00:55;22.30;;;17.27;;
6197;SDS011;3132;42.622;23.328;2023-11-22T07:03:21;21.97;;;18.57;;
6197;SDS011;3132;42.622;23.328;2023-11-22T07:05:46;19.20;;;17.50;;
6197;SDS011;3132;42.622;23.328;2023-11-22T07:08:11;18.07;;;16.37;;
6197;SDS011;3132;42.622;23.328;2023-11-22T07:10:37;17.33;;;15.70;;
6197;SDS011;3132;42.622;23.328;2023-11-22T07:13:03;18.43;;;16.63;;
6197;SDS011;3132;42.622;23.328;2023-11-22T07:15:28;19.13;;;17.20;;
6197;SDS011;3132;42.622;23.328;2023-11-22T07:17:54;25.67;;;22.67;;
6197;SDS011;3132;42.622;23.328;2023-11-22T07:20:20;30.67;;;23.43;;
6197;SDS011;3132;42.622;23.328;2023-11-22T07:22:45;27.63;;;23.07;;
6197;SDS011;3132;42.622;23.328;2023-11-22T07:25:11;30.37;;;23.37;;
6197;SDS011;3132;42.622;23.328;2023-11-22T07:27:46;30.47;;;24.23;;
6197;SDS011;3132;42.622;23.328;2023-11-22T07:30:14;34.03;;;24.43;;
6197;SDS011;3132;42.622;23.328;2023-11-22T07:32:41;36.73;;;25.07;;
6197;SDS011;3132;42.622;23.328;2023-11-22T07:35:07;35.43;;;24.57;;
6197;SDS011;3132;42.622;23.328;2023-11-22T07:37:37;40.97;;;25.63;;
6197;SDS011;3132;42.622;23.328;2023-11-22T07:40:07;34.73;;;25.03;;
6197;SDS011;3132;42.622;23.328;2023-11-22T07:42:34;35.20;;;25.60;;
6197;SDS011;3132;42.622;23.328;2023-11-22T07:45:00;32.97;;;25.73;;
6197;SDS011;3132;42.622;23.328;2023-11-22T07:47:26;37.20;;;24.50;;
6197;SDS011;3132;42.622;23.328;2023-11-22T07:49:53;36.23;;;25.03;;
6197;SDS011;3132;42.622;23.328;2023-11-22T07:52:20;33.70;;;25.10;;
6197;SDS011;3132;42.622;23.328;2023-11-22T07:54:46;33.53;;;25.27;;
6197;SDS011;3132;42.622;23.328;2023-11-22T07:57:11;41.27;;;27.23;;
6197;SDS011;3132;42.622;23.328;2023-11-22T07:59:37;40.13;;;25.50;;
6197;SDS011;3132;42.622;23.328;2023-11-22T08:02:03;37.77;;;28.10;;
6197;SDS011;3132;42.622;23.328;2023-11-22T08:04:31;33.50;;;26.37;;
6197;SDS011;3132;42.622;23.328;2023-11-22T08:06:57;32.83;;;25.73;;
6197;SDS011;3132;42.622;23.328;2023-11-22T08:09:23;35.10;;;26.90;;
6197;SDS011;3132;42.622;23.328;2023-11-22T08:11:48;36.03;;;25.27;;
6197;SDS011;3132;42.622;23.328;2023-11-22T08:14:15;32.63;;;23.50;;
6197;SDS011;3132;42.622;23.328;2023-11-22T08:16:40;35.87;;;24.57;;
6197;SDS011;3132;42.622;23.328;2023-11-22T08:19:08;44.03;;;26.60;;
6197;SDS011;3132;42.622;23.328;2023-11-22T08:21:34;40.33;;;29.17;;
6197;SDS011;3132;42.622;23.328;2023-11-22T08:24:00;37.83;;;29.77;;
6197;SDS011;3132;42.622;23.328;2023-11-22T08:26:25;34.77;;;26.53;;
6197;SDS011;3132;42.622;23.328;2023-11-22T08:28:51;35.13;;;27.40;;
6197;SDS011;3132;42.622;23.328;2023-11-22T08:31:16;29.73;;;25.73;;
6197;SDS011;3132;42.622;23.328;2023-11-22T08:33:42;36.73;;;27.43;;
6197;SDS011;3132;42.622;23.328;2023-11-22T08:36:08;35.53;;;27.30;;
6197;SDS011;3132;42.622;23.328;2023-11-22T08:38:34;35.13;;;28.47;;
6197;SDS011;3132;42.622;23.328;2023-11-22T08:41:01;33.70;;;28.63;;
6197;SDS011;3132;42.622;23.328;2023-11-22T08:43:28;45.03;;;31.63;;
6197;SDS011;3132;42.622;23.328;2023-11-22T08:45:53;45.93;;;32.97;;
6197;SDS011;3132;42.622;23.328;2023-11-22T08:48:19;41.87;;;29.20;;
6197;SDS011;3132;42.622;23.328;2023-11-22T08:50:45;38.83;;;27.20;;
6197;SDS011;3132;42.622;23.328;2023-11-22T08:53:12;38.03;;;26.83;;
6197;SDS011;3132;42.622;23.328;2023-11-22T08:55:38;35.03;;;28.90;;
6197;SDS011;3132;42.622;23.328;2023-11-22T08:58:03;42.07;;;30.93;;
6197;SDS011;3132;42.622;23.328;2023-11-22T09:00:30;45.20;;;29.23;;
6197;SDS011;3132;42.622;23.328;2023-11-22T09:02:57;32.80;;;26.97;;
6197;SDS011;3132;42.622;23.328;2023-11-22T09:05:23;40.63;;;29.03;;
6197;SDS011;3132;42.622;23.328;2023-11-22T09:07:49;40.27;;;26.40;;
6197;SDS011;3132;42.622;23.328;2023-11-22T09:10:16;34.77;;;26.40;;
6197;SDS011;3132;42.622;23.328;2023-11-22T09:12:43;31.13;;;27.03;;
6197;SDS011;3132;42.622;23.328;2023-11-22T09:15:10;33.70;;;27.90;;
6197;SDS011;3132;42.622;23.328;2023-11-22T09:17:38;32.73;;;26.17;;
6197;SDS011;3132;42.622;23.328;2023-11-22T09:20:17;31.77;;;26.67;;
6197;SDS011;3132;42.622;23.328;2023-11-22T09:22:50;33.33;;;27.20;;
6197;SDS011;3132;42.622;23.328;2023-11-22T09:25:20;32.43;;;25.30;;
6197;SDS011;3132;42.622;23.328;2023-11-22T09:27:48;33.17;;;26.50;;
6197;SDS011;3132;42.622;23.328;2023-11-22T09:30:18;34.87;;;25.23;;
6197;SDS011;3132;42.622;23.328;2023-11-22T09:33:06;30.33;;;25.23;;
6197;SDS011;3132;42.622;23.328;2023-11-22T09:35:36;35.10;;;23.73;;
6197;SDS011;3132;42.622;23.328;2023-11-22T09:38:03;37.60;;;25.63;;
6197;SDS011;3132;42.622;23.328;2023-11-22T09:40:31;32.97;;;25.60;;
6197;SDS011;3132;42.622;23.328;2023-11-22T09:43:00;34.77;;;25.77;;
6197;SDS011;3132;42.622;23.328;2023-11-22T09:45:27;29.80;;;26.57;;
6197;SDS011;3132;42.622;23.328;2023-11-22T09:47:52;34.93;;;26.80;;
6197;SDS011;3132;42.622;23.328;2023-11-22T09:50:19;36.03;;;27.53;;
6197;SDS011;3132;42.622;23.328;2023-11-22T09:52:52;29.83;;;26.20;;
6197;SDS011;3132;42.622;23.328;2023-11-22T09:55:21;34.17;;;26.83;;
6197;SDS011;3132;42.622;23.328;2023-11-22T09:57:52;30.10;;;26.30;;
6197;SDS011;3132;42.622;23.328;2023-11-22T10:00:18;33.47;;;28.13;;
6197;SDS011;3132;42.622;23.328;2023-11-22T10:02:46;32.37;;;26.57;;
6197;SDS011;3132;42.622;23.328;2023-11-22T10:05:12;35.00;;;26.93;;
6197;SDS011;3132;42.622;23.328;2023-11-22T10:07:37;34.13;;;27.73;;
6197;SDS011;3132;42.622;23.328;2023-11-22T10:10:03;39.70;;;28.23;;
6197;SDS011;3132;42.622;23.328;2023-11-22T10:12:30;32.00;;;26.33;;
6197;SDS011;3132;42.622;23.328;2023-11-22T10:15:10;33.17;;;27.87;;
6197;SDS011;3132;42.622;23.328;2023-11-22T10:17:39;35.03;;;26.23;;
6197;SDS011;3132;42.622;23.328;2023-11-22T10:20:05;35.47;;;28.17;;
6197;SDS011;3132;42.622;23.328;2023-11-22T10:22:45;36.80;;;29.00;;
6197;SDS011;3132;42.622;23.328;2023-11-22T10:25:13;37.77;;;28.47;;
6197;SDS011;3132;42.622;23.328;2023-11-22T10:27:39;36.70;;;28.43;;
6197;SDS011;3132;42.622;23.328;2023-11-22T10:30:06;35.87;;;29.07;;
6197;SDS011;3132;42.622;23.328;2023-11-22T10:32:36;37.53;;;28.40;;
6197;SDS011;3132;42.622;23.328;2023-11-22T10:35:03;39.07;;;29.73;;
6197;SDS011;3132;42.622;23.328;2023-11-22T10:37:29;40.00;;;28.17;;
6197;SDS011;3132;42.622;23.328;2023-11-22T10:39:54;38.27;;;28.70;;
6197;SDS011;3132;42.622;23.328;2023-11-22T10:42:20;37.00;;;29.47;;
6197;SDS011;3132;42.622;23.328;2023-11-22T10:44:48;48.30;;;29.17;;
6197;SDS011;3132;42.622;23.328;2023-11-22T10:47:14;38.23;;;28.17;;
6197;SDS011;3132;42.622;23.328;2023-11-22T10:49:42;38.30;;;29.17;;
6197;SDS011;3132;42.622;23.328;2023-11-22T10:52:08;37.93;;;29.77;;
6197;SDS011;3132;42.622;23.328;2023-11-22T10:54:38;33.73;;;27.93;;
6197;SDS011;3132;42.622;23.328;2023-11-22T10:57:09;33.83;;;26.93;;
6197;SDS011;3132;42.622;23.328;2023-11-22T10:59:37;34.90;;;27.33;;
6197;SDS011;3132;42.622;23.328;2023-11-22T11:02:09;37.90;;;28.63;;
6197;SDS011;3132;42.622;23.328;2023-11-22T11:04:46;38.40;;;27.37;;
6197;SDS011;3132;42.622;23.328;2023-11-22T11:07:21;32.87;;;26.67;;
6197;SDS011;3132;42.622;23.328;2023-11-22T11:09:49;32.87;;;26.60;;
6197;SDS011;3132;42.622;23.328;2023-11-22T11:12:16;28.40;;;24.73;;
6197;SDS011;3132;42.622;23.328;2023-11-22T11:14:43;30.80;;;24.43;;
6197;SDS011;3132;42.622;23.328;2023-11-22T11:17:11;33.00;;;28.03;;
6197;SDS011;3132;42.622;23.328;2023-11-22T11:19:38;41.73;;;29.27;;
6197;SDS011;3132;42.622;23.328;2023-11-22T11:22:07;36.40;;;28.93;;
6197;SDS011;3132;42.622;23.328;2023-11-22T11:24:43;39.60;;;28.80;;
6197;SDS011;3132;42.622;23.328;2023-11-22T11:27:13;36.23;;;27.07;;
6197;SDS011;3132;42.622;23.328;2023-11-22T11:29:40;36.90;;;28.83;;
6197;SDS011;3132;42.622;23.328;2023-11-22T11:32:50;33.80;;;28.73;;
6197;SDS011;3132;42.622;23.328;2023-11-22T11:35:04;41.10;;;30.33;;
6197;SDS011;3132;42.622;23.328;2023-11-22T11:37:33;35.60;;;28.30;;
6197;SDS011;3132;42.622;23.328;2023-11-22T11:39:58;37.80;;;27.70;;
6197;SDS011;3132;42.622;23.328;2023-11-22T11:42:24;37.73;;;28.73;;
6197;SDS011;3132;42.622;23.328;2023-11-22T11:47:24;32.67;;;25.10;;
6197;SDS011;3132;42.622;23.328;2023-11-22T11:49:49;32.90;;;25.07;;
6197;SDS011;3132;42.622;23.328;2023-11-22T11:52:17;31.93;;;23.63;;
6197;SDS011;3132;42.622;23.328;2023-11-22T11:54:42;28.47;;;23.27;;
6197;SDS011;3132;42.622;23.328;2023-11-22T11:57:08;23.77;;;20.27;;
6197;SDS011;3132;42.622;23.328;2023-11-22T11:59:34;28.43;;;21.60;;
6197;SDS011;3132;42.622;23.328;2023-11-22T12:02:00;29.90;;;22.20;;
6197;SDS011;3132;42.622;23.328;2023-11-22T12:04:26;29.23;;;24.53;;
6197;SDS011;3132;42.622;23.328;2023-11-22T12:06:51;29.10;;;24.70;;
6197;SDS011;3132;42.622;23.328;2023-11-22T12:09:27;30.50;;;24.27;;
6197;SDS011;3132;42.622;23.328;2023-11-22T12:11:54;27.50;;;23.03;;
6197;SDS011;3132;42.622;23.328;2023-11-22T12:14:20;23.77;;;21.37;;
6197;SDS011;3132;42.622;23.328;2023-11-22T12:16:46;27.90;;;21.80;;
6197;SDS011;3132;42.622;23.328;2023-11-22T12:19:20;28.73;;;23.13;;
6197;SDS011;3132;42.622;23.328;2023-11-22T12:21:50;26.87;;;23.97;;
6197;SDS011;3132;42.622;23.328;2023-11-22T12:24:15;29.77;;;22.83;;
6197;SDS011;3132;42.622;23.328;2023-11-22T12:26:44;27.00;;;23.20;;
6197;SDS011;3132;42.622;23.328;2023-11-22T12:29:14;27.47;;;22.93;;
6197;SDS011;3132;42.622;23.328;2023-11-22T12:31:45;36.07;;;23.20;;
6197;SDS011;3132;42.622;23.328;2023-11-22T12:34:15;27.27;;;23.80;;
6197;SDS011;3132;42.622;23.328;2023-11-22T12:36:41;32.40;;;23.80;;
6197;SDS011;3132;42.622;23.328;2023-11-22T12:39:10;41.70;;;23.40;;
6197;SDS011;3132;42.622;23.328;2023-11-22T12:41:45;34.43;;;23.67;;
6197;SDS011;3132;42.622;23.328;2023-11-22T12:44:13;32.10;;;22.63;;
6197;SDS011;3132;42.622;23.328;2023-11-22T12:46:48;34.10;;;22.63;;
6197;SDS011;3132;42.622;23.328;2023-11-22T12:49:17;29.17;;;22.87;;
6197;SDS011;3132;42.622;23.328;2023-11-22T12:51:47;29.30;;;22.90;;
6197;SDS011;3132;42.622;23.328;2023-11-22T12:54:14;31.93;;;22.47;;
6197;SDS011;3132;42.622;23.328;2023-11-22T12:56:40;24.40;;;21.80;;
6197;SDS011;3132;42.622;23.328;2023-11-22T12:59:06;27.93;;;23.67;;
6197;SDS011;3132;42.622;23.328;2023-11-22T13:01:31;28.80;;;24.27;;
6197;SDS011;3132;42.622;23.328;2023-11-22T13:03:57;33.63;;;22.77;;
6197;SDS011;3132;42.622;23.328;2023-11-22T13:06:22;29.17;;;22.40;;
6197;SDS011;3132;42.622;23.328;2023-11-22T13:08:49;33.53;;;23.57;;
6197;SDS011;3132;42.622;23.328;2023-11-22T13:11:15;30.83;;;24.00;;
6197;SDS011;3132;42.622;23.328;2023-11-22T13:13:41;31.87;;;26.03;;
6197;SDS011;3132;42.622;23.328;2023-11-22T13:16:06;35.27;;;27.30;;
6197;SDS011;3132;42.622;23.328;2023-11-22T13:18:33;33.07;;;25.30;;
6197;SDS011;3132;42.622;23.328;2023-11-22T13:20:58;33.27;;;24.43;;
6197;SDS011;3132;42.622;23.328;2023-11-22T13:23:24;27.80;;;24.23;;
6197;SDS011;3132;42.622;23.328;2023-11-22T13:25:49;29.43;;;25.53;;
6197;SDS011;3132;42.622;23.328;2023-11-22T13:28:14;33.33;;;26.07;;
6197;SDS011;3132;42.622;23.328;2023-11-22T13:30:40;29.93;;;24.67;;
6197;SDS011;3132;42.622;23.328;2023-11-22T13:33:05;30.40;;;24.23;;
6197;SDS011;3132;42.622;23.328;2023-11-22T13:35:30;32.73;;;22.60;;
6197;SDS011;3132;42.622;23.328;2023-11-22T13:37:56;32.77;;;23.17;;
6197;SDS011;3132;42.622;23.328;2023-11-22T13:40:23;33.97;;;24.90;;
6197;SDS011;3132;42.622;23.328;2023-11-22T13:42:51;33.77;;;23.87;;
6197;SDS011;3132;42.622;23.328;2023-11-22T13:45:19;32.20;;;24.13;;
6197;SDS011;3132;42.622;23.328;2023-11-22T13:47:46;32.03;;;25.40;;
6197;SDS011;3132;42.622;23.328;2023-11-22T13:50:13;35.10;;;25.23;;
6197;SDS011;3132;42.622;23.328;2023-11-22T13:52:40;41.27;;;26.10;;
6197;SDS011;3132;42.622;23.328;2023-11-22T13:55:06;33.07;;;24.07;;
6197;SDS011;3132;42.622;23.328;2023-11-22T13:57:35;28.90;;;24.47;;
6197;SDS011;3132;42.622;23.328;2023-11-22T14:00:01;30.83;;;24.73;;
6197;SDS011;3132;42.622;23.328;2023-11-22T14:02:32;32.87;;;25.30;;
6197;SDS011;3132;42.622;23.328;2023-11-22T14:04:57;30.53;;;23.77;;
6197;SDS011;3132;42.622;23.328;2023-11-22T14:07:24;32.30;;;24.57;;
6197;SDS011;3132;42.622;23.328;2023-11-22T14:09:49;32.70;;;25.67;;
6197;SDS011;3132;42.622;23.328;2023-11-22T14:12:15;31.53;;;25.07;;
6197;SDS011;3132;42.622;23.328;2023-11-22T14:14:43;34.03;;;25.80;;
6197;SDS011;3132;42.622;23.328;2023-11-22T14:17:09;30.50;;;25.90;;
6197;SDS011;3132;42.622;23.328;2023-11-22T14:19:34;32.73;;;24.87;;
6197;SDS011;3132;42.622;23.328;2023-11-22T14:21:59;39.03;;;25.33;;
6197;SDS011;3132;42.622;23.328;2023-11-22T14:24:25;37.60;;;27.20;;
6197;SDS011;3132;42.622;23.328;2023-11-22T14:26:52;38.77;;;28.90;;
6197;SDS011;3132;42.622;23.328;2023-11-22T14:29:17;37.33;;;29.53;;
6197;SDS011;3132;42.622;23.328;2023-11-22T14:31:43;46.57;;;36.27;;
6197;SDS011;3132;42.622;23.328;2023-11-22T14:34:09;45.80;;;36.67;;